Time;durP1;ratioP1;P1;durP2;ratioP2;P2;SDS_P1;SDS_P2;PMS_P1;PMS_P2;Temp;Humidity;BMP_temperature;BMP_pressure;BME280_temperature;BME280_humidity;BME280_pressure;Samples;Min_cycle;Max_cycle;Signal;HPM_P1;HPM_P2
2022/11/22 04:00:46;;;;;;;;;;;6.20;99.90;;;;;;5985361;23;19933;-67
2022/11/22 04:03:12;;;;;;;;;;;6.30;99.90;;;;;;4971301;28;19934;-71
2022/11/22 04:05:39;;;;;;;;;;;6.30;99.90;;;;;;4973088;28;20028;-72
2022/11/22 04:08:05;;;;;;;;;;;6.10;99.90;;;;;;4974379;28;20047;-72
2022/11/22 04:10:32;;;;;;;;;;;6.10;99.90;;;;;;4973821;28;19965;-72
2022/11/22 04:12:59;;;;;;;;;;;6.10;99.90;;;;;;4953638;28;19930;-71
2022/11/22 04:15:25;;;;;;;;;;;6.00;99.90;;;;;;4959689;28;19926;-72
2022/11/22 04:17:53;;;;;;;;;;;6.00;99.90;;;;;;4956269;28;19965;-72
2022/11/22 04:23:07;;;;;;;;;;;5.90;99.90;;;;;;4951093;28;19923;-73
2022/11/22 04:25:33;;;;;;;;;;;5.90;99.90;;;;;;4962171;28;19926;-71
2022/11/22 04:28:00;;;;;;;;;;;5.80;99.90;;;;;;4968275;28;19941;-71
2022/11/22 04:33:09;;;;;;;;;;;5.80;99.90;;;;;;4955055;28;19922;-72
2022/11/22 04:35:37;;;;;;;;;;;5.80;99.90;;;;;;4960886;28;19934;-71
2022/11/22 04:38:03;;;;;;;;;;;5.70;99.90;;;;;;4961308;28;19930;-72
2022/11/22 04:40:30;;;;;;;;;;;5.80;99.90;;;;;;4961792;28;19954;-72
2022/11/22 04:45:42;;;;;;;;;;;5.80;99.90;;;;;;4965400;28;19929;-71
2022/11/22 04:48:11;;;;;;;;;;;5.80;99.90;;;;;;4949010;28;19978;-72
2022/11/22 04:53:23;;;;;;;;;;;5.80;99.90;;;;;;4956307;28;19923;-70
2022/11/22 04:55:50;;;;;;;;;;;5.90;99.90;;;;;;4963898;28;19926;-72
2022/11/22 04:58:17;;;;;;;;;;;5.90;99.90;;;;;;4963809;28;19926;-72
2022/11/22 05:00:44;;;;;;;;;;;5.80;99.90;;;;;;4960965;28;19926;-73
2022/11/22 05:03:12;;;;;;;;;;;5.80;99.90;;;;;;4958302;28;19949;-72
2022/11/22 05:05:40;;;;;;;;;;;5.70;99.90;;;;;;4972126;28;20333;-72
2022/11/22 05:08:08;;;;;;;;;;;5.70;99.90;;;;;;4960832;28;20389;-72
2022/11/22 05:13:16;;;;;;;;;;;5.50;99.90;;;;;;4966207;28;20305;-68
2022/11/22 05:15:43;;;;;;;;;;;5.50;99.90;;;;;;4962022;28;19933;-73
2022/11/22 05:18:10;;;;;;;;;;;5.40;99.90;;;;;;4955430;28;19934;-71
2022/11/22 05:20:38;;;;;;;;;;;5.40;99.90;;;;;;4955998;28;19934;-71
2022/11/22 05:25:49;;;;;;;;;;;5.40;99.90;;;;;;4965400;28;19929;-71
2022/11/22 05:28:16;;;;;;;;;;;5.40;99.90;;;;;;4954907;28;19926;-72
2022/11/22 05:30:43;;;;;;;;;;;5.50;99.90;;;;;;4953786;28;19930;-71
2022/11/22 05:33:09;;;;;;;;;;;5.50;99.90;;;;;;4960411;28;19941;-72
2022/11/22 05:35:37;;;;;;;;;;;5.50;99.90;;;;;;4956571;28;19927;-71
2022/11/22 05:38:04;;;;;;;;;;;5.50;99.90;;;;;;4961408;28;20357;-71
2022/11/22 05:40:32;;;;;;;;;;;5.60;99.90;;;;;;4956619;28;19926;-71
2022/11/22 05:42:59;;;;;;;;;;;5.60;99.90;;;;;;4953485;28;19990;-71
2022/11/22 05:45:25;;;;;;;;;;;5.70;99.90;;;;;;4956066;28;19926;-71
2022/11/22 05:47:52;;;;;;;;;;;5.70;99.90;;;;;;4959720;28;19931;-72
2022/11/22 05:50:19;;;;;;;;;;;5.70;99.90;;;;;;4954832;28;20024;-71
2022/11/22 05:52:55;;;;;;;;;;;5.60;99.90;;;;;;4955833;28;19932;-71
2022/11/22 05:55:22;;;;;;;;;;;5.70;99.90;;;;;;4965721;28;19926;-72
2022/11/22 05:57:49;;;;;;;;;;;5.60;99.90;;;;;;4963036;28;19926;-71
2022/11/22 06:00:19;;;;;;;;;;;5.70;99.90;;;;;;4961724;28;19926;-71
2022/11/22 06:02:45;;;;;;;;;;;5.70;99.90;;;;;;4949236;28;19965;-71
2022/11/22 06:05:12;;;;;;;;;;;5.70;99.90;;;;;;4951593;28;19926;-71
2022/11/22 06:07:39;;;;;;;;;;;5.70;99.90;;;;;;4955328;28;20352;-73
2022/11/22 06:10:08;;;;;;;;;;;5.60;99.90;;;;;;4953776;28;19933;-71
2022/11/22 06:12:35;;;;;;;;;;;5.50;99.90;;;;;;4958331;28;19927;-72
2022/11/22 06:15:02;;;;;;;;;;;5.50;99.90;;;;;;4958753;28;19930;-72
2022/11/22 06:17:29;;;;;;;;;;;5.40;99.90;;;;;;4961548;28;19927;-71
2022/11/22 06:19:55;;;;;;;;;;;5.40;99.90;;;;;;4954056;28;19933;-71
2022/11/22 06:22:22;;;;;;;;;;;5.50;99.90;;;;;;4952686;28;19927;-71
2022/11/22 06:24:49;;;;;;;;;;;5.40;99.90;;;;;;4960819;28;19937;-70
2022/11/22 06:27:17;;;;;;;;;;;5.50;99.90;;;;;;4953437;28;19938;-72
2022/11/22 06:29:44;;;;;;;;;;;5.40;99.90;;;;;;4948980;28;19927;-71
2022/11/22 06:32:12;;;;;;;;;;;5.40;99.90;;;;;;4953332;28;19939;-70
2022/11/22 06:34:38;;;;;;;;;;;5.40;99.90;;;;;;4948720;28;19974;-72
2022/11/22 06:37:05;;;;;;;;;;;5.40;99.90;;;;;;4957175;28;19933;-70
2022/11/22 06:39:32;;;;;;;;;;;5.40;99.90;;;;;;4950259;28;19926;-70
2022/11/22 06:41:59;;;;;;;;;;;5.40;99.90;;;;;;4954203;28;20452;-71
2022/11/22 06:44:27;;;;;;;;;;;5.40;99.90;;;;;;4958057;28;19933;-70
2022/11/22 06:46:54;;;;;;;;;;;5.40;99.90;;;;;;4949926;28;19926;-70
2022/11/22 06:49:21;;;;;;;;;;;5.30;99.90;;;;;;4958243;28;19938;-70
2022/11/22 06:51:48;;;;;;;;;;;5.30;99.90;;;;;;4949359;28;19930;-71
2022/11/22 06:54:14;;;;;;;;;;;5.30;99.90;;;;;;4961167;28;19938;-71
2022/11/22 06:56:41;;;;;;;;;;;5.30;99.90;;;;;;4954863;28;19930;-71
2022/11/22 06:59:08;;;;;;;;;;;5.30;99.90;;;;;;4946083;28;20002;-71
2022/11/22 07:01:37;;;;;;;;;;;5.30;99.90;;;;;;4975463;28;19926;-71
2022/11/22 07:04:04;;;;;;;;;;;5.30;99.90;;;;;;4962350;28;19943;-70
2022/11/22 07:06:32;;;;;;;;;;;5.30;99.90;;;;;;4963817;28;19996;-72
2022/11/22 07:08:59;;;;;;;;;;;5.20;99.90;;;;;;4953447;28;19927;-72
2022/11/22 07:11:26;;;;;;;;;;;5.20;99.90;;;;;;4952383;28;19933;-71
2022/11/22 07:13:54;;;;;;;;;;;5.20;99.90;;;;;;4959075;28;20053;-71
2022/11/22 07:16:21;;;;;;;;;;;5.10;99.90;;;;;;4962297;28;19930;-71
2022/11/22 07:18:49;;;;;;;;;;;5.00;99.90;;;;;;4970628;28;19926;-72
2022/11/22 07:21:17;;;;;;;;;;;4.90;99.90;;;;;;4962160;28;19954;-71
2022/11/22 07:23:45;;;;;;;;;;;4.70;99.90;;;;;;4965418;28;20345;-71
2022/11/22 07:26:12;;;;;;;;;;;4.70;99.90;;;;;;4969362;28;19930;-71
2022/11/22 07:28:39;;;;;;;;;;;4.60;99.90;;;;;;4959897;28;19933;-71
2022/11/22 07:31:07;;;;;;;;;;;4.60;99.90;;;;;;4960182;28;19934;-71
2022/11/22 07:33:34;;;;;;;;;;;4.60;99.90;;;;;;4955532;28;19930;-71
2022/11/22 07:36:05;;;;;;;;;;;4.60;99.90;;;;;;4955567;28;19931;-70
2022/11/22 07:38:32;;;;;;;;;;;4.60;99.90;;;;;;4962928;28;20016;-70
2022/11/22 07:40:59;;;;;;;;;;;4.60;99.90;;;;;;4957838;28;19935;-70
2022/11/22 07:43:25;;;;;;;;;;;4.70;99.90;;;;;;4957635;28;20294;-70
2022/11/22 07:45:52;;;;;;;;;;;4.80;99.90;;;;;;4964510;28;19935;-70
2022/11/22 07:48:19;;;;;;;;;;;4.90;99.90;;;;;;4954190;28;19927;-71
2022/11/22 07:50:46;;;;;;;;;;;4.90;99.90;;;;;;4951263;28;19933;-73
2022/11/22 07:53:14;;;;;;;;;;;4.90;99.90;;;;;;4955506;28;19931;-71
2022/11/22 07:55:41;;;;;;;;;;;4.90;99.90;;;;;;4958555;28;19933;-70
2022/11/22 07:58:07;;;;;;;;;;;5.00;99.90;;;;;;4957374;28;19950;-72
2022/11/22 08:00:34;;;;;;;;;;;5.00;99.90;;;;;;4954784;28;19933;-72
2022/11/22 08:03:01;;;;;;;;;;;5.10;99.90;;;;;;4946017;28;19945;-71
2022/11/22 08:05:28;;;;;;;;;;;5.20;99.90;;;;;;4952058;28;19930;-71
2022/11/22 08:07:54;;;;;;;;;;;5.20;99.90;;;;;;4959587;28;19941;-73
2022/11/22 08:10:23;;;;;;;;;;;5.20;99.90;;;;;;4958268;28;19930;-72
2022/11/22 08:12:50;;;;;;;;;;;5.20;99.90;;;;;;4955218;28;19942;-71
2022/11/22 08:15:17;;;;;;;;;;;5.30;99.90;;;;;;4954189;28;19934;-73
2022/11/22 08:17:44;;;;;;;;;;;5.40;99.90;;;;;;4952517;28;19926;-71
2022/11/22 08:20:11;;;;;;;;;;;5.40;99.90;;;;;;4943716;28;19927;-71
2022/11/22 08:22:39;;;;;;;;;;;5.40;99.90;;;;;;4950418;28;19937;-71
2022/11/22 08:25:11;;;;;;;;;;;5.50;99.90;;;;;;4940471;28;19933;-72
2022/11/22 08:27:40;;;;;;;;;;;5.70;99.90;;;;;;4958605;28;20309;-71
2022/11/22 08:30:07;;;;;;;;;;;5.80;99.90;;;;;;4946308;28;19985;-72
2022/11/22 08:32:34;;;;;;;;;;;5.90;99.90;;;;;;4946518;28;20013;-71
2022/11/22 08:35:01;;;;;;;;;;;6.10;99.90;;;;;;4942060;28;19927;-72
2022/11/22 08:37:28;;;;;;;;;;;6.30;99.90;;;;;;4943294;28;19934;-72
2022/11/22 08:39:55;;;;;;;;;;;6.50;99.90;;;;;;4949957;28;19933;-73
2022/11/22 08:42:22;;;;;;;;;;;6.70;99.90;;;;;;4955093;28;19930;-73
2022/11/22 08:44:51;;;;;;;;;;;6.80;99.90;;;;;;4957415;28;19934;-71
2022/11/22 08:47:17;;;;;;;;;;;7.00;99.90;;;;;;4947924;28;19933;-71
2022/11/22 08:49:44;;;;;;;;;;;7.20;99.90;;;;;;4955347;28;19926;-72
2022/11/22 08:52:11;;;;;;;;;;;7.30;99.90;;;;;;4947971;28;19926;-72
2022/11/22 08:54:38;;;;;;;;;;;7.50;99.90;;;;;;4946871;28;19934;-72
2022/11/22 08:57:05;;;;;;;;;;;7.60;99.90;;;;;;4946160;28;20406;-73
2022/11/22 08:59:32;;;;;;;;;;;7.60;99.90;;;;;;4950776;28;19930;-72
2022/11/22 09:02:00;;;;;;;;;;;7.70;99.90;;;;;;4951251;28;19934;-72
2022/11/22 09:04:27;;;;;;;;;;;7.80;99.90;;;;;;4947916;28;19941;-71
2022/11/22 09:06:54;;;;;;;;;;;7.70;99.90;;;;;;4943945;28;19934;-71
2022/11/22 09:09:21;;;;;;;;;;;7.70;99.90;;;;;;4949157;28;19934;-71
2022/11/22 09:11:48;;;;;;;;;;;7.80;99.90;;;;;;4951258;28;19950;-70
2022/11/22 09:14:15;;;;;;;;;;;7.90;99.90;;;;;;4949351;28;19941;-71
2022/11/22 09:16:41;;;;;;;;;;;7.90;99.90;;;;;;4945268;28;19934;-71
2022/11/22 09:19:10;;;;;;;;;;;7.90;99.90;;;;;;4946819;28;19931;-71
2022/11/22 09:21:36;;;;;;;;;;;8.00;99.90;;;;;;4952501;28;19941;-70
2022/11/22 09:24:03;;;;;;;;;;;8.00;99.90;;;;;;4954524;28;19926;-72
2022/11/22 09:26:30;;;;;;;;;;;8.00;99.90;;;;;;4956348;28;19930;-71
2022/11/22 09:28:57;;;;;;;;;;;8.10;99.90;;;;;;4952105;28;19927;-71
2022/11/22 09:31:24;;;;;;;;;;;8.00;99.90;;;;;;4951215;28;19934;-71
2022/11/22 09:33:51;;;;;;;;;;;8.00;99.90;;;;;;4943515;28;19927;-71
2022/11/22 09:36:20;;;;;;;;;;;8.00;99.90;;;;;;4952106;28;19927;-71
2022/11/22 09:38:48;;;;;;;;;;;8.00;99.90;;;;;;4955442;28;19935;-71
2022/11/22 09:41:19;;;;;;;;;;;8.00;99.90;;;;;;4957112;28;19937;-71
2022/11/22 09:43:51;;;;;;;;;;;8.00;99.90;;;;;;4958965;28;19933;-70
2022/11/22 09:46:23;;;;;;;;;;;8.10;99.90;;;;;;4954778;28;20166;-71
2022/11/22 09:49:09;;;;;;;;;;;8.10;99.90;;;;;;4949822;28;19930;-70
2022/11/22 09:51:40;;;;;;;;;;;8.00;99.90;;;;;;4944811;28;19927;-70
2022/11/22 09:54:09;;;;;;;;;;;8.00;99.90;;;;;;4961106;28;19926;-71
2022/11/22 09:56:35;;;;;;;;;;;8.00;99.90;;;;;;4953684;28;19927;-70
2022/11/22 09:59:05;;;;;;;;;;;8.10;99.90;;;;;;4958589;28;19933;-70
2022/11/22 10:01:37;;;;;;;;;;;8.20;99.90;;;;;;4954952;28;19926;-71
2022/11/22 10:04:06;;;;;;;;;;;8.20;99.90;;;;;;4947186;28;19926;-71
2022/11/22 10:06:34;;;;;;;;;;;8.20;99.90;;;;;;4956336;28;19931;-72
2022/11/22 10:09:13;;;;;;;;;;;8.30;99.90;;;;;;4943232;28;19966;-70
2022/11/22 10:11:43;;;;;;;;;;;8.40;99.90;;;;;;4957087;28;19930;-71
2022/11/22 10:14:13;;;;;;;;;;;8.40;99.90;;;;;;4949549;28;19933;-70
2022/11/22 10:16:42;;;;;;;;;;;8.60;99.90;;;;;;4963608;28;19927;-72
2022/11/22 10:19:11;;;;;;;;;;;8.70;99.90;;;;;;4952394;28;19937;-71
2022/11/22 10:21:38;;;;;;;;;;;8.70;99.90;;;;;;4952991;28;19926;-68
2022/11/22 10:24:10;;;;;;;;;;;8.60;99.90;;;;;;4958048;28;19933;-71
2022/11/22 10:26:38;;;;;;;;;;;8.60;99.90;;;;;;4954434;28;19934;-71
2022/11/22 10:29:12;;;;;;;;;;;8.50;99.90;;;;;;4948339;28;19927;-71
2022/11/22 10:31:44;;;;;;;;;;;8.50;99.90;;;;;;4944557;28;19939;-71
2022/11/22 10:34:15;;;;;;;;;;;8.60;99.90;;;;;;4939519;28;19933;-70
2022/11/22 10:36:46;;;;;;;;;;;8.70;99.90;;;;;;4939263;28;19926;-71
2022/11/22 10:39:21;;;;;;;;;;;8.70;99.90;;;;;;4942992;28;19938;-72
2022/11/22 10:42:05;;;;;;;;;;;8.80;99.90;;;;;;4941697;28;19934;-72
2022/11/22 10:44:38;;;;;;;;;;;8.80;99.90;;;;;;4952611;28;19927;-71
2022/11/22 10:47:11;;;;;;;;;;;8.80;99.90;;;;;;4950347;28;19931;-71
2022/11/22 10:49:47;;;;;;;;;;;8.90;99.90;;;;;;4957150;28;19930;-72
2022/11/22 10:52:18;;;;;;;;;;;9.00;99.90;;;;;;4942505;28;19931;-71
2022/11/22 10:54:51;;;;;;;;;;;8.90;99.90;;;;;;4956078;28;19942;-71
2022/11/22 10:57:23;;;;;;;;;;;9.00;99.90;;;;;;4951599;28;19927;-71
2022/11/22 10:59:56;;;;;;;;;;;9.00;99.90;;;;;;4954576;28;19930;-72
2022/11/22 11:02:40;;;;;;;;;;;8.90;99.90;;;;;;4958773;28;19927;-71
2022/11/22 11:05:10;;;;;;;;;;;8.90;99.90;;;;;;4959612;28;19937;-71
2022/11/22 11:07:47;;;;;;;;;;;8.80;99.90;;;;;;4949530;28;19941;-72
2022/11/22 11:10:17;;;;;;;;;;;8.90;99.90;;;;;;4941158;28;20421;-73
2022/11/22 11:12:46;;;;;;;;;;;8.90;99.90;;;;;;4944747;28;19966;-71
2022/11/22 11:15:16;;;;;;;;;;;8.80;99.90;;;;;;4946425;28;19962;-68
2022/11/22 11:17:45;;;;;;;;;;;8.90;99.90;;;;;;4942758;28;19942;-70
2022/11/22 11:20:20;;;;;;;;;;;8.90;99.90;;;;;;4942138;28;19926;-71
2022/11/22 11:22:46;;;;;;;;;;;8.90;99.90;;;;;;4958751;28;19927;-71
2022/11/22 11:25:32;;;;;;;;;;;8.90;99.90;;;;;;4962832;28;19938;-71
2022/11/22 11:28:00;;;;;;;;;;;8.90;99.90;;;;;;4954319;28;19930;-71
2022/11/22 11:30:27;;;;;;;;;;;9.00;99.90;;;;;;4951234;28;20334;-71
2022/11/22 11:32:55;;;;;;;;;;;9.10;99.90;;;;;;4950682;28;19931;-71
2022/11/22 11:35:24;;;;;;;;;;;9.10;99.90;;;;;;4949598;28;19927;-71
2022/11/22 11:37:51;;;;;;;;;;;9.10;99.90;;;;;;4956153;28;20282;-72
2022/11/22 11:40:28;;;;;;;;;;;9.20;99.90;;;;;;4957501;28;19933;-71
2022/11/22 11:43:16;;;;;;;;;;;9.30;99.90;;;;;;4954528;28;19930;-71
2022/11/22 11:45:43;;;;;;;;;;;9.30;99.90;;;;;;4948995;28;19989;-71
2022/11/22 11:48:39;;;;;;;;;;;9.30;99.90;;;;;;4958433;28;19930;-70
2022/11/22 11:51:08;;;;;;;;;;;9.10;99.90;;;;;;4901727;28;20025;-71
2022/11/22 11:53:35;;;;;;;;;;;9.10;99.90;;;;;;4959431;28;19927;-71
2022/11/22 11:56:19;;;;;;;;;;;9.20;99.90;;;;;;4951169;28;19934;-70
2022/11/22 11:58:51;;;;;;;;;;;9.10;99.90;;;;;;4962909;28;20274;-70
2022/11/22 12:01:18;;;;;;;;;;;9.10;99.90;;;;;;4952399;28;19934;-71
2022/11/22 12:03:50;;;;;;;;;;;9.10;99.90;;;;;;4951543;28;19930;-71
2022/11/22 12:06:17;;;;;;;;;;;9.00;99.90;;;;;;4948925;28;19934;-71
2022/11/22 12:08:44;;;;;;;;;;;9.10;99.90;;;;;;4962687;28;19934;-71
2022/11/22 12:11:14;;;;;;;;;;;9.10;99.90;;;;;;4956571;28;19937;-72
2022/11/22 12:13:43;;;;;;;;;;;9.00;99.90;;;;;;4951930;28;19926;-71
2022/11/22 12:16:16;;;;;;;;;;;8.90;99.90;;;;;;4945324;28;19927;-71
2022/11/22 12:18:45;;;;;;;;;;;8.80;99.90;;;;;;4960427;28;19926;-71
2022/11/22 12:21:16;;;;;;;;;;;8.80;99.90;;;;;;4949764;28;19954;-71
2022/11/22 12:23:47;;;;;;;;;;;8.80;99.90;;;;;;4958761;28;19931;-71
2022/11/22 12:26:14;;;;;;;;;;;8.80;99.90;;;;;;4954829;28;19930;-71
2022/11/22 12:28:41;;;;;;;;;;;8.80;99.90;;;;;;4959171;28;19933;-71
2022/11/22 12:31:12;;;;;;;;;;;8.90;99.90;;;;;;4960723;28;19930;-70
2022/11/22 12:33:42;;;;;;;;;;;9.00;99.90;;;;;;4954499;28;19956;-71
2022/11/22 12:36:11;;;;;;;;;;;9.10;99.90;;;;;;4965495;28;19934;-71
2022/11/22 12:38:39;;;;;;;;;;;9.10;99.90;;;;;;4965091;28;19934;-70
2022/11/22 12:41:09;;;;;;;;;;;9.10;99.90;;;;;;4960968;28;19930;-71
2022/11/22 12:43:37;;;;;;;;;;;9.00;99.90;;;;;;4956300;28;19973;-70
2022/11/22 12:46:08;;;;;;;;;;;9.10;99.90;;;;;;4961795;28;20370;-71
2022/11/22 12:48:38;;;;;;;;;;;9.10;99.90;;;;;;4961540;28;20420;-72
2022/11/22 12:51:13;;;;;;;;;;;9.10;99.90;;;;;;4960703;28;19926;-70
2022/11/22 12:53:41;;;;;;;;;;;9.20;99.90;;;;;;4966257;28;19962;-71
2022/11/22 12:56:10;;;;;;;;;;;9.30;99.90;;;;;;4964009;28;20310;-71
2022/11/22 12:58:40;;;;;;;;;;;9.20;99.90;;;;;;4952762;28;19934;-72
2022/11/22 13:01:12;;;;;;;;;;;9.20;99.90;;;;;;4953256;28;19933;-70
2022/11/22 13:03:44;;;;;;;;;;;9.20;99.90;;;;;;4947181;28;20381;-70
2022/11/22 13:06:13;;;;;;;;;;;9.20;99.90;;;;;;4951928;28;19933;-71
2022/11/22 13:08:42;;;;;;;;;;;9.20;99.90;;;;;;4963215;28;20345;-72
2022/11/22 13:11:13;;;;;;;;;;;9.20;99.90;;;;;;4958792;28;20003;-72
2022/11/22 13:13:42;;;;;;;;;;;9.10;99.90;;;;;;4956751;28;19933;-70
2022/11/22 13:16:10;;;;;;;;;;;9.10;99.90;;;;;;4957592;28;19926;-72
2022/11/22 13:18:39;;;;;;;;;;;9.10;99.90;;;;;;4964229;28;19934;-70
2022/11/22 13:21:10;;;;;;;;;;;9.20;99.90;;;;;;4958230;28;19927;-70
2022/11/22 13:23:48;;;;;;;;;;;9.10;99.90;;;;;;4962345;28;19958;-70
2022/11/22 13:26:18;;;;;;;;;;;9.10;99.90;;;;;;4960514;28;20030;-70
2022/11/22 13:28:46;;;;;;;;;;;9.00;99.90;;;;;;4951142;28;20373;-70
2022/11/22 13:31:15;;;;;;;;;;;8.90;99.90;;;;;;4951957;29;19926;-71
2022/11/22 13:33:43;;;;;;;;;;;8.90;99.90;;;;;;4957898;28;19926;-70
2022/11/22 13:36:23;;;;;;;;;;;9.00;99.90;;;;;;4953142;28;20017;-70
2022/11/22 13:38:52;;;;;;;;;;;9.10;99.90;;;;;;4960924;28;19933;-67
2022/11/22 13:41:24;;;;;;;;;;;9.10;99.90;;;;;;4964118;28;19976;-72
2022/11/22 13:43:52;;;;;;;;;;;9.10;99.90;;;;;;4956521;28;19927;-71
2022/11/22 13:46:49;;;;;;;;;;;9.10;99.90;;;;;;4942776;28;19927;-71
2022/11/22 13:49:16;;;;;;;;;;;9.00;99.90;;;;;;4885633;29;19938;-73
2022/11/22 13:51:50;;;;;;;;;;;9.00;99.90;;;;;;4933790;28;20322;-70
2022/11/22 13:54:39;;;;;;;;;;;9.00;99.90;;;;;;4951664;28;19934;-69
2022/11/22 13:57:23;;;;;;;;;;;9.00;99.90;;;;;;4955887;28;19930;-69
2022/11/22 14:00:24;;;;;;;;;;;9.00;99.90;;;;;;4963123;28;19929;-70
2022/11/22 14:02:52;;;;;;;;;;;9.00;99.90;;;;;;4953369;28;19933;-70
2022/11/22 14:05:20;;;;;;;;;;;9.00;99.90;;;;;;4959632;28;19926;-70
2022/11/22 14:07:49;;;;;;;;;;;8.90;99.90;;;;;;4957388;28;19926;-70
2022/11/22 14:10:32;;;;;;;;;;;8.90;99.90;;;;;;4960917;28;19977;-70
2022/11/22 14:13:19;;;;;;;;;;;8.90;99.90;;;;;;4956884;28;19927;-71
2022/11/22 14:16:03;;;;;;;;;;;8.80;99.90;;;;;;4977565;28;19937;-70
2022/11/22 14:18:43;;;;;;;;;;;8.80;99.90;;;;;;4961165;28;19926;-69
2022/11/22 14:21:13;;;;;;;;;;;8.80;99.90;;;;;;4948082;28;19926;-69
2022/11/22 14:23:46;;;;;;;;;;;8.80;99.90;;;;;;4958818;28;19926;-68
2022/11/22 14:26:21;;;;;;;;;;;8.70;99.90;;;;;;4954269;28;19986;-66
2022/11/22 14:29:09;;;;;;;;;;;8.60;99.90;;;;;;4969573;28;19926;-66
2022/11/22 14:31:36;;;;;;;;;;;8.70;99.90;;;;;;4950182;28;19962;-67
2022/11/22 14:34:20;;;;;;;;;;;8.70;99.90;;;;;;4958964;28;19933;-70
2022/11/22 14:37:08;;;;;;;;;;;8.70;99.90;;;;;;4949209;28;20390;-70
2022/11/22 14:39:59;;;;;;;;;;;8.70;99.90;;;;;;4961794;28;19926;-71
2022/11/22 14:42:42;;;;;;;;;;;8.70;99.90;;;;;;4955403;28;19931;-70
2022/11/22 14:45:16;;;;;;;;;;;8.70;99.90;;;;;;4948357;28;19926;-71
2022/11/22 14:47:45;;;;;;;;;;;8.70;99.90;;;;;;4948182;28;19930;-71
2022/11/22 14:50:15;;;;;;;;;;;8.70;99.90;;;;;;4951386;28;19926;-71
2022/11/22 14:52:43;;;;;;;;;;;8.70;99.90;;;;;;4957062;28;19933;-71
2022/11/22 14:55:15;;;;;;;;;;;8.70;99.90;;;;;;4947083;28;19934;-71
2022/11/22 14:57:43;;;;;;;;;;;8.70;99.90;;;;;;4961523;28;20361;-71
2022/11/22 15:00:16;;;;;;;;;;;8.70;99.90;;;;;;4960324;28;19933;-71
2022/11/22 15:03:02;;;;;;;;;;;8.60;99.90;;;;;;4956879;28;20381;-71
2022/11/22 15:05:37;;;;;;;;;;;8.60;99.90;;;;;;4953422;28;19926;-71
2022/11/22 15:08:17;;;;;;;;;;;8.50;99.90;;;;;;4955310;28;19926;-71
2022/11/22 15:10:59;;;;;;;;;;;8.50;99.90;;;;;;4949791;28;19934;-71
2022/11/22 15:13:33;;;;;;;;;;;8.50;99.90;;;;;;4954232;28;19942;-71
2022/11/22 15:16:01;;;;;;;;;;;8.40;99.90;;;;;;4965119;28;19930;-71
2022/11/22 15:18:32;;;;;;;;;;;8.40;99.90;;;;;;4963540;28;19926;-71
2022/11/22 15:20:59;;;;;;;;;;;8.40;99.90;;;;;;4953770;28;19933;-71
2022/11/22 15:23:27;;;;;;;;;;;8.40;99.90;;;;;;4953540;28;20013;-71
2022/11/22 15:26:01;;;;;;;;;;;8.40;99.90;;;;;;4957350;28;19927;-71
2022/11/22 15:28:28;;;;;;;;;;;8.40;99.90;;;;;;4955729;28;19934;-71
2022/11/22 15:30:56;;;;;;;;;;;8.40;99.90;;;;;;4960384;28;19926;-71
2022/11/22 15:33:25;;;;;;;;;;;8.40;99.90;;;;;;4957946;28;19926;-70
2022/11/22 15:35:58;;;;;;;;;;;8.40;99.90;;;;;;4950210;28;19927;-70
2022/11/22 15:38:25;;;;;;;;;;;8.40;99.90;;;;;;4978295;28;19926;-70
2022/11/22 15:40:54;;;;;;;;;;;8.40;99.90;;;;;;4962127;28;19926;-69
2022/11/22 15:43:24;;;;;;;;;;;8.40;99.90;;;;;;4957099;28;19926;-69
2022/11/22 15:45:51;;;;;;;;;;;8.30;99.90;;;;;;4962225;28;19931;-69
2022/11/22 15:48:20;;;;;;;;;;;8.30;99.90;;;;;;4963085;28;20393;-68
2022/11/22 15:51:03;;;;;;;;;;;8.20;99.90;;;;;;4965537;28;19985;-73
2022/11/22 15:53:30;;;;;;;;;;;8.20;99.90;;;;;;4957151;28;19949;-69
2022/11/22 15:55:59;;;;;;;;;;;8.20;99.90;;;;;;4962066;28;19930;-69
2022/11/22 15:58:31;;;;;;;;;;;8.10;99.90;;;;;;4961872;28;19978;-70
2022/11/22 16:01:00;;;;;;;;;;;8.00;99.90;;;;;;4960475;28;19930;-66
2022/11/22 16:03:29;;;;;;;;;;;7.90;99.90;;;;;;4954868;29;19930;-68
2022/11/22 16:06:02;;;;;;;;;;;7.80;99.90;;;;;;4960955;28;19926;-73
2022/11/22 16:08:29;;;;;;;;;;;7.80;99.90;;;;;;4947574;28;19927;-66
2022/11/22 16:10:56;;;;;;;;;;;7.80;99.90;;;;;;4947016;28;19927;-68
2022/11/22 16:13:25;;;;;;;;;;;7.80;99.90;;;;;;4964022;28;19931;-69
2022/11/22 16:16:05;;;;;;;;;;;7.80;99.90;;;;;;4962372;28;19993;-67
2022/11/22 16:18:32;;;;;;;;;;;7.80;99.90;;;;;;4965962;28;19935;-67
2022/11/22 16:21:00;;;;;;;;;;;7.80;99.90;;;;;;4968076;28;19926;-71
2022/11/22 16:23:27;;;;;;;;;;;7.90;99.90;;;;;;4964674;28;19926;-65
2022/11/22 16:25:57;;;;;;;;;;;7.90;99.90;;;;;;4954662;29;20347;-67
2022/11/22 16:28:31;;;;;;;;;;;7.90;99.90;;;;;;4958615;28;19926;-70
2022/11/22 16:30:58;;;;;;;;;;;7.90;99.90;;;;;;4947339;29;20017;-68
2022/11/22 16:33:27;;;;;;;;;;;7.90;99.90;;;;;;4965990;28;19930;-68
2022/11/22 16:35:54;;;;;;;;;;;7.90;99.90;;;;;;4960556;28;19927;-68
2022/11/22 16:38:22;;;;;;;;;;;7.90;99.90;;;;;;4955540;28;19966;-70
2022/11/22 16:40:49;;;;;;;;;;;7.90;99.90;;;;;;4956084;28;19926;-69
2022/11/22 16:43:16;;;;;;;;;;;7.90;99.90;;;;;;4969729;28;20301;-69
2022/11/22 16:45:43;;;;;;;;;;;7.90;99.90;;;;;;4964726;28;19934;-69
2022/11/22 16:48:13;;;;;;;;;;;7.90;99.90;;;;;;4962374;28;19926;-69
2022/11/22 16:50:41;;;;;;;;;;;7.90;99.90;;;;;;4953664;29;19927;-70
2022/11/22 16:53:10;;;;;;;;;;;7.90;99.90;;;;;;4961970;28;19930;-69
2022/11/22 16:55:37;;;;;;;;;;;7.90;99.90;;;;;;4956402;28;19934;-70
2022/11/22 16:58:10;;;;;;;;;;;7.90;99.90;;;;;;4958038;28;19978;-70
2022/11/22 17:00:37;;;;;;;;;;;7.90;99.90;;;;;;4962829;28;19930;-70
2022/11/22 17:03:04;;;;;;;;;;;8.00;99.90;;;;;;4954646;28;19926;-69
2022/11/22 17:05:31;;;;;;;;;;;8.00;99.90;;;;;;4949016;28;20324;-70
2022/11/22 17:07:59;;;;;;;;;;;8.00;99.90;;;;;;4956656;28;19937;-70
2022/11/22 17:10:25;;;;;;;;;;;8.00;99.90;;;;;;4960601;28;20003;-70
2022/11/22 17:12:52;;;;;;;;;;;8.00;99.90;;;;;;4967048;28;20337;-70
2022/11/22 17:15:23;;;;;;;;;;;8.00;99.90;;;;;;4955873;28;19927;-72
2022/11/22 17:17:50;;;;;;;;;;;8.10;99.90;;;;;;4956154;28;19926;-70
2022/11/22 17:20:16;;;;;;;;;;;8.10;99.90;;;;;;4958552;28;19931;-70
2022/11/22 17:22:43;;;;;;;;;;;8.10;99.90;;;;;;4969023;28;19927;-70
2022/11/22 17:25:13;;;;;;;;;;;8.10;99.90;;;;;;4957216;28;19973;-70
2022/11/22 17:27:41;;;;;;;;;;;8.20;99.90;;;;;;4977491;28;19989;-70
2022/11/22 17:30:08;;;;;;;;;;;8.20;99.90;;;;;;4954303;28;19926;-69
2022/11/22 17:32:36;;;;;;;;;;;8.20;99.90;;;;;;4954656;28;20282;-69
2022/11/22 17:35:02;;;;;;;;;;;8.30;99.90;;;;;;4956318;28;19930;-69
2022/11/22 17:37:29;;;;;;;;;;;8.30;99.90;;;;;;4953734;28;19926;-69
2022/11/22 17:39:56;;;;;;;;;;;8.30;99.90;;;;;;4953715;28;19933;-69
2022/11/22 17:42:24;;;;;;;;;;;8.20;99.90;;;;;;4958754;28;19933;-69
2022/11/22 17:44:51;;;;;;;;;;;8.20;99.90;;;;;;4957300;28;19930;-70
2022/11/22 17:47:18;;;;;;;;;;;8.20;99.90;;;;;;4956862;28;19930;-70
2022/11/22 17:49:45;;;;;;;;;;;8.30;99.90;;;;;;4961101;28;20334;-70
2022/11/22 17:52:11;;;;;;;;;;;8.30;99.90;;;;;;4955548;28;20441;-71
2022/11/22 17:54:38;;;;;;;;;;;8.30;99.90;;;;;;4959357;28;19937;-71
2022/11/22 17:57:05;;;;;;;;;;;8.40;99.90;;;;;;4961905;28;19930;-71
2022/11/22 17:59:33;;;;;;;;;;;8.40;99.90;;;;;;4953755;28;19934;-71
2022/11/22 18:02:00;;;;;;;;;;;8.40;99.90;;;;;;4957006;28;19949;-70
2022/11/22 18:04:27;;;;;;;;;;;8.50;99.90;;;;;;4954889;28;19926;-71
2022/11/22 18:06:54;;;;;;;;;;;8.50;99.90;;;;;;4964199;28;19926;-70
2022/11/22 18:09:20;;;;;;;;;;;8.60;99.90;;;;;;4955976;28;20353;-70
2022/11/22 18:11:49;;;;;;;;;;;8.50;99.90;;;;;;4951071;28;20283;-69
2022/11/22 18:14:16;;;;;;;;;;;8.60;99.90;;;;;;4957702;28;19926;-70
2022/11/22 18:16:44;;;;;;;;;;;8.60;99.90;;;;;;4951336;29;19927;-69
2022/11/22 18:19:11;;;;;;;;;;;8.60;99.90;;;;;;4961243;28;20341;-70
2022/11/22 18:21:37;;;;;;;;;;;8.70;99.90;;;;;;4957359;28;20297;-71
2022/11/22 18:24:07;;;;;;;;;;;8.70;99.90;;;;;;4953303;28;19926;-69
2022/11/22 18:26:34;;;;;;;;;;;8.70;99.90;;;;;;4953459;28;19930;-69
2022/11/22 18:29:01;;;;;;;;;;;8.70;99.90;;;;;;4957673;28;19930;-70
2022/11/22 18:31:27;;;;;;;;;;;8.70;99.90;;;;;;4974660;28;19931;-69
2022/11/22 18:33:56;;;;;;;;;;;8.70;99.90;;;;;;4963273;28;19934;-70
2022/11/22 18:36:23;;;;;;;;;;;8.70;99.90;;;;;;4969583;28;19927;-70
2022/11/22 18:38:50;;;;;;;;;;;8.80;99.90;;;;;;4966208;28;19927;-68
2022/11/22 18:41:17;;;;;;;;;;;8.90;99.90;;;;;;4957691;28;20201;-70
2022/11/22 18:43:44;;;;;;;;;;;9.00;99.90;;;;;;4960752;28;19930;-69
2022/11/22 18:46:11;;;;;;;;;;;9.10;99.90;;;;;;4958708;28;19927;-70
2022/11/22 18:48:38;;;;;;;;;;;9.10;99.90;;;;;;4959642;28;19930;-69
2022/11/22 18:51:08;;;;;;;;;;;9.20;99.90;;;;;;4961561;28;20021;-70
2022/11/22 18:53:34;;;;;;;;;;;9.10;99.90;;;;;;4959587;28;19931;-68
2022/11/22 18:56:02;;;;;;;;;;;9.20;99.90;;;;;;4965445;28;19926;-69
2022/11/22 18:58:29;;;;;;;;;;;9.20;99.90;;;;;;4955250;28;19927;-70
2022/11/22 19:00:55;;;;;;;;;;;9.20;99.90;;;;;;4959684;28;19933;-70